Time;durP1;ratioP1;P1;durP2;ratioP2;P2;SDS_P1;SDS_P2;PMS_P1;PMS_P2;Temp;Humidity;BMP_temperature;BMP_pressure;BME280_temperature;BME280_humidity;BME280_pressure;Samples;Min_cycle;Max_cycle;Signal;HPM_P1;HPM_P2
2022/01/24 00:00:15;;;;;;;5.80;3.93;;;5.80;99.90;;;;;;5094082;28;20168;-90
2022/01/24 00:02:42;;;;;;;5.53;3.60;;;5.80;99.90;;;;;;5093185;28;20426;-86
2022/01/24 00:05:09;;;;;;;9.37;3.97;;;5.80;99.90;;;;;;5093274;28;20430;-92
2022/01/24 00:07:35;;;;;;;9.00;4.87;;;5.70;99.90;;;;;;5093176;28;20770;-90
2022/01/24 00:10:04;;;;;;;6.97;4.00;;;5.80;99.90;;;;;;5092620;28;20474;-89
2022/01/24 00:12:48;;;;;;;8.50;4.73;;;5.80;99.90;;;;;;5093823;28;20454;-91
2022/01/24 00:17:46;;;;;;;6.43;4.43;;;5.70;99.90;;;;;;5094157;28;20466;-92
2022/01/24 00:28:26;;;;;;;6.93;4.00;;;5.70;99.90;;;;;;5094486;28;20412;-91
2022/01/24 00:30:52;;;;;;;5.83;4.10;;;5.70;99.90;;;;;;5094266;28;20908;-91
2022/01/24 00:33:19;;;;;;;5.80;3.30;;;5.70;99.90;;;;;;5094634;28;20172;-91
2022/01/24 00:35:45;;;;;;;7.07;4.00;;;5.70;99.90;;;;;;5093612;28;20407;-92
2022/01/24 00:38:11;;;;;;;5.87;3.83;;;5.70;99.90;;;;;;5093493;28;20528;-90
2022/01/24 00:40:40;;;;;;;4.93;3.30;;;5.70;99.90;;;;;;5093605;28;20434;-91
2022/01/24 00:43:18;;;;;;;7.97;4.13;;;5.70;99.90;;;;;;5093182;28;20432;-92
2022/01/24 00:45:57;;;;;;;7.63;4.40;;;5.70;99.90;;;;;;5094613;28;20457;-90
2022/01/24 00:48:32;;;;;;;9.43;4.27;;;5.70;99.90;;;;;;5094603;28;20485;-93
2022/01/24 00:54:03;;;;;;;5.90;3.57;;;5.80;99.90;;;;;;5094755;28;20495;-93
2022/01/24 00:56:29;;;;;;;6.97;4.63;;;5.80;99.90;;;;;;5093235;28;20425;-92
2022/01/24 00:58:54;;;;;;;6.73;4.30;;;5.70;99.90;;;;;;5093317;28;20885;-92
2022/01/24 01:01:20;;;;;;;5.27;3.67;;;5.70;99.90;;;;;;5094378;28;20173;-93
2022/01/24 01:03:45;;;;;;;5.60;2.80;;;5.70;99.90;;;;;;5094338;28;20177;-91
2022/01/24 01:06:12;;;;;;;7.97;4.33;;;5.70;99.90;;;;;;5094307;28;20174;-92
2022/01/24 01:19:39;;;;;;;8.70;4.83;;;5.60;99.90;;;;;;5094238;28;20984;-93
2022/01/24 01:22:05;;;;;;;7.27;3.70;;;5.60;99.90;;;;;;5093405;28;20613;-91
2022/01/24 01:24:35;;;;;;;8.73;4.77;;;5.60;99.90;;;;;;5093916;28;20589;-92
2022/01/24 01:27:11;;;;;;;8.00;4.97;;;5.60;99.90;;;;;;5094081;28;20404;-92
2022/01/24 01:32:15;;;;;;;9.77;6.37;;;5.60;99.90;;;;;;5094218;28;20403;-92
2022/01/24 01:35:03;;;;;;;7.17;4.60;;;5.60;99.90;;;;;;5094525;28;20931;-92
2022/01/24 01:40:41;;;;;;;9.03;5.10;;;5.60;99.90;;;;;;5095124;28;20426;-89
2022/01/24 01:54:19;;;;;;;7.73;5.00;;;5.60;99.90;;;;;;5097219;28;20402;-89
2022/01/24 01:56:44;;;;;;;8.00;5.10;;;5.60;99.90;;;;;;5095844;28;20418;-89
2022/01/24 01:59:10;;;;;;;7.60;4.50;;;5.60;99.90;;;;;;5096915;28;20481;-90
2022/01/24 02:01:35;;;;;;;8.97;4.80;;;5.60;99.90;;;;;;5097515;28;20172;-90
2022/01/24 02:04:03;;;;;;;7.30;4.37;;;5.70;99.90;;;;;;5097790;28;20172;-89
2022/01/24 02:06:30;;;;;;;7.93;5.27;;;5.60;99.90;;;;;;5095038;28;20173;-89
2022/01/24 02:09:05;;;;;;;10.03;5.90;;;5.60;99.90;;;;;;5096313;28;20418;-90
2022/01/24 02:11:31;;;;;;;10.90;5.90;;;5.60;99.90;;;;;;5095067;28;20460;-90
2022/01/24 02:14:01;;;;;;;8.27;4.67;;;5.60;99.90;;;;;;5096831;28;20420;-89
2022/01/24 02:16:41;;;;;;;8.67;5.90;;;5.50;99.90;;;;;;5097187;28;20177;-88
2022/01/24 02:24:55;;;;;;;12.70;6.57;;;5.50;99.90;;;;;;5014908;28;20420;-90
2022/01/24 02:27:22;;;;;;;11.37;5.37;;;5.60;99.90;;;;;;5063168;28;20414;-90
2022/01/24 02:29:55;;;;;;;10.93;6.20;;;5.60;99.90;;;;;;5095193;28;20454;-87
2022/01/24 02:32:20;;;;;;;14.93;6.63;;;5.60;99.90;;;;;;5096545;28;20406;-88
2022/01/24 02:34:49;;;;;;;10.60;5.60;;;5.60;99.90;;;;;;5096290;28;20930;-89
2022/01/24 02:37:18;;;;;;;12.80;6.37;;;5.60;99.90;;;;;;5095420;28;20173;-89
2022/01/24 02:40:04;;;;;;;13.60;6.97;;;5.60;99.90;;;;;;5094984;28;20463;-89
2022/01/24 02:51:04;;;;;;;12.83;7.47;;;5.50;99.90;;;;;;5096855;28;20477;-89
2022/01/24 02:53:31;;;;;;;13.57;7.40;;;5.60;99.90;;;;;;5096270;28;20407;-91
2022/01/24 02:55:57;;;;;;;11.87;7.43;;;5.50;99.90;;;;;;5095722;28;20452;-87
2022/01/24 02:58:23;;;;;;;9.60;5.40;;;5.60;99.90;;;;;;5096169;28;20470;-90
2022/01/24 03:00:50;;;;;;;13.20;8.50;;;5.60;99.90;;;;;;5096052;28;20502;-89
2022/01/24 03:03:17;;;;;;;13.53;7.50;;;5.50;99.90;;;;;;5095958;28;20238;-90
2022/01/24 03:05:43;;;;;;;11.33;7.37;;;5.50;99.90;;;;;;5098250;28;20398;-90
2022/01/24 03:08:08;;;;;;;11.00;6.10;;;5.50;99.90;;;;;;5099663;28;20513;-90
2022/01/24 03:10:46;;;;;;;14.47;7.70;;;5.50;99.90;;;;;;5102996;28;20194;-89
2022/01/24 03:15:53;;;;;;;10.93;7.30;;;5.50;99.90;;;;;;5095817;28;20430;-89
2022/01/24 03:18:20;;;;;;;11.03;7.07;;;5.40;99.90;;;;;;5095445;28;20466;-90
2022/01/24 03:20:46;;;;;;;11.10;6.47;;;5.40;99.90;;;;;;5095858;28;20446;-92
2022/01/24 03:23:13;;;;;;;13.53;6.57;;;5.40;99.90;;;;;;5095737;28;20422;-91
2022/01/24 03:25:39;;;;;;;12.37;7.87;;;5.40;99.90;;;;;;5094149;28;20454;-88
2022/01/24 03:28:05;;;;;;;10.87;7.23;;;5.40;99.90;;;;;;5095543;28;20469;-91
2022/01/24 03:30:32;;;;;;;14.50;7.80;;;5.40;99.90;;;;;;5095546;28;20204;-92
2022/01/24 03:32:58;;;;;;;10.60;6.77;;;5.40;99.90;;;;;;5094355;28;20180;-89
2022/01/24 03:35:24;;;;;;;10.10;6.63;;;5.30;99.90;;;;;;5094422;28;20426;-92
2022/01/24 03:37:49;;;;;;;8.43;5.43;;;5.30;99.90;;;;;;5095510;28;20477;-90
2022/01/24 03:40:15;;;;;;;12.27;5.23;;;5.30;99.90;;;;;;5095399;28;20183;-91
2022/01/24 03:42:40;;;;;;;5.70;3.70;;;5.30;99.90;;;;;;5096462;28;20259;-90
2022/01/24 03:45:09;;;;;;;8.10;4.63;;;5.30;99.90;;;;;;5096335;28;20219;-91
2022/01/24 03:50:03;;;;;;;6.67;4.20;;;5.30;99.90;;;;;;5095201;28;20793;-91
2022/01/24 03:52:30;;;;;;;9.13;5.87;;;5.30;99.90;;;;;;5095303;28;20476;-90
2022/01/24 03:54:57;;;;;;;9.43;5.87;;;5.30;99.90;;;;;;5095004;28;20423;-92
2022/01/24 03:57:23;;;;;;;11.43;5.63;;;5.30;99.90;;;;;;5094760;28;20412;-92
2022/01/24 03:59:49;;;;;;;9.27;4.83;;;5.30;99.90;;;;;;5093686;28;20465;-89
2022/01/24 04:02:16;;;;;;;7.37;3.50;;;5.20;99.90;;;;;;5093497;28;20760;-90
2022/01/24 04:04:42;;;;;;;6.87;3.73;;;5.20;99.90;;;;;;5093229;28;20180;-90
2022/01/24 04:07:08;;;;;;;6.13;3.83;;;5.30;99.90;;;;;;5093771;28;20414;-91
2022/01/24 04:09:35;;;;;;;9.30;4.50;;;5.20;99.90;;;;;;5094224;28;20261;-91
2022/01/24 04:12:02;;;;;;;5.87;3.10;;;5.20;99.90;;;;;;5092947;28;20468;-92
2022/01/24 04:14:41;;;;;;;7.70;3.93;;;5.20;99.90;;;;;;5094792;28;20440;-89
2022/01/24 04:22:15;;;;;;;5.50;2.73;;;5.20;99.90;;;;;;5095175;28;20406;-92
2022/01/24 04:24:41;;;;;;;6.20;3.77;;;5.20;99.90;;;;;;5094509;28;20422;-91
2022/01/24 04:27:07;;;;;;;6.83;5.20;;;5.20;99.90;;;;;;5093975;28;20410;-91
2022/01/24 04:29:33;;;;;;;6.70;4.53;;;5.20;99.90;;;;;;5094217;28;20414;-89
2022/01/24 04:31:59;;;;;;;6.80;3.90;;;5.20;99.90;;;;;;5092984;28;20172;-90
2022/01/24 04:34:24;;;;;;;9.60;4.63;;;5.20;99.90;;;;;;5094241;28;20496;-90
2022/01/24 04:36:50;;;;;;;6.90;4.30;;;5.20;99.90;;;;;;5094235;28;20807;-89
2022/01/24 04:39:16;;;;;;;6.93;4.70;;;5.10;99.90;;;;;;5094209;28;20249;-89
2022/01/24 04:41:45;;;;;;;9.10;4.93;;;5.10;99.90;;;;;;5093790;28;20168;-90
2022/01/24 04:54:40;;;;;;;10.97;7.10;;;5.10;99.90;;;;;;5118347;28;20479;-85
2022/01/24 04:57:21;;;;;;;9.80;5.83;;;5.10;99.90;;;;;;5117338;28;20407;-87
2022/01/24 04:59:48;;;;;;;11.43;6.77;;;5.00;99.90;;;;;;5117302;28;20480;-87
2022/01/24 05:02:15;;;;;;;9.33;5.90;;;5.10;99.90;;;;;;5116192;28;20408;-86
2022/01/24 05:04:41;;;;;;;12.47;7.40;;;5.10;99.90;;;;;;5103824;28;20477;-90
2022/01/24 05:07:06;;;;;;;14.90;8.20;;;5.10;99.90;;;;;;5094246;28;20407;-90
2022/01/24 05:23:34;;;;;;;15.30;9.33;;;5.10;99.90;;;;;;5098159;28;20459;-89
2022/01/24 05:26:02;;;;;;;16.13;10.47;;;5.10;99.90;;;;;;5096403;28;20415;-90
2022/01/24 05:28:29;;;;;;;17.83;9.03;;;5.10;99.90;;;;;;5097948;28;20426;-88
2022/01/24 05:30:55;;;;;;;15.70;9.87;;;5.20;99.90;;;;;;5096513;28;20421;-88
2022/01/24 05:33:20;;;;;;;13.90;7.73;;;5.10;99.90;;;;;;5096513;28;20481;-89
2022/01/24 05:35:46;;;;;;;18.30;9.07;;;5.10;99.90;;;;;;5097644;28;20516;-89
2022/01/24 05:38:12;;;;;;;18.37;8.83;;;5.10;99.90;;;;;;5097644;28;20646;-86
2022/01/24 05:40:39;;;;;;;16.43;10.00;;;5.10;99.90;;;;;;5096983;28;20427;-89
2022/01/24 05:43:06;;;;;;;17.33;10.40;;;5.10;99.90;;;;;;5096228;28;20651;-87
2022/01/24 05:45:33;;;;;;;17.73;10.27;;;5.10;99.90;;;;;;5096023;28;20432;-88
2022/01/24 05:47:58;;;;;;;13.80;8.13;;;5.10;99.90;;;;;;5097182;28;20415;-89
2022/01/24 05:50:23;;;;;;;17.10;9.37;;;5.10;99.90;;;;;;5095870;28;20565;-87
2022/01/24 05:52:49;;;;;;;12.40;7.70;;;5.10;99.90;;;;;;5095696;28;20188;-88
2022/01/24 05:55:15;;;;;;;13.33;8.67;;;5.10;99.90;;;;;;5096793;28;20167;-90
2022/01/24 05:57:40;;;;;;;16.57;9.53;;;5.10;99.90;;;;;;5097097;28;20192;-90
2022/01/24 06:00:08;;;;;;;16.53;9.47;;;5.10;99.90;;;;;;5097145;28;20198;-88
2022/01/24 06:02:34;;;;;;;17.30;10.70;;;5.10;99.90;;;;;;5095868;28;20200;-86
2022/01/24 06:04:59;;;;;;;20.83;11.00;;;5.10;99.90;;;;;;5096646;28;20478;-90
2022/01/24 06:07:25;;;;;;;18.10;10.80;;;5.10;99.90;;;;;;5095918;28;20514;-89
2022/01/24 06:09:50;;;;;;;20.37;12.10;;;5.10;99.90;;;;;;5095639;28;20223;-88
2022/01/24 06:12:16;;;;;;;19.87;12.30;;;5.00;99.90;;;;;;5095929;28;20582;-88
2022/01/24 06:14:41;;;;;;;23.40;12.47;;;5.10;99.90;;;;;;5096952;28;20574;-89
2022/01/24 06:17:08;;;;;;;17.73;10.80;;;5.00;99.90;;;;;;5095823;28;20192;-90
2022/01/24 06:19:33;;;;;;;21.83;12.60;;;5.00;99.90;;;;;;5098208;28;20207;-88
2022/01/24 06:21:59;;;;;;;15.57;9.47;;;5.10;99.90;;;;;;5096769;28;20406;-88
2022/01/24 06:24:24;;;;;;;20.63;13.43;;;5.10;99.90;;;;;;5095635;28;20172;-89
2022/01/24 06:26:50;;;;;;;19.40;11.30;;;5.10;99.90;;;;;;5095688;28;20188;-89
2022/01/24 06:29:18;;;;;;;19.53;11.60;;;5.10;99.90;;;;;;5096375;28;20180;-88
2022/01/24 06:31:44;;;;;;;21.50;11.33;;;5.10;99.90;;;;;;5091836;28;20603;-89
2022/01/24 06:34:10;;;;;;;22.83;12.80;;;5.10;99.90;;;;;;5095166;28;20513;-89
2022/01/24 06:36:36;;;;;;;17.17;11.17;;;5.10;99.90;;;;;;5097160;28;20451;-90
2022/01/24 06:39:04;;;;;;;17.67;10.70;;;5.10;99.90;;;;;;5093639;28;20269;-91
2022/01/24 06:41:33;;;;;;;19.70;10.57;;;5.00;99.90;;;;;;5096912;28;20245;-90
2022/01/24 06:43:59;;;;;;;21.30;12.97;;;5.10;99.90;;;;;;5094313;28;20406;-91
2022/01/24 06:46:24;;;;;;;23.30;10.97;;;5.10;99.90;;;;;;5095497;28;20402;-92
2022/01/24 06:48:50;;;;;;;17.27;10.43;;;5.10;99.90;;;;;;5096095;28;20933;-91
2022/01/24 06:51:17;;;;;;;16.73;10.40;;;5.10;99.90;;;;;;5096002;28;20180;-92
2022/01/24 06:53:43;;;;;;;20.57;11.97;;;5.00;99.90;;;;;;5094874;28;20180;-92
2022/01/24 06:56:09;;;;;;;15.90;9.93;;;5.00;99.90;;;;;;5094144;28;20475;-92
2022/01/24 06:58:36;;;;;;;15.10;9.73;;;5.00;99.90;;;;;;5096361;28;20207;-91
2022/01/24 07:01:02;;;;;;;17.83;10.23;;;5.00;99.90;;;;;;5093397;28;20538;-92
2022/01/24 07:03:28;;;;;;;16.73;10.73;;;5.00;99.90;;;;;;5095642;28;20422;-88
2022/01/24 07:05:53;;;;;;;18.40;10.47;;;5.00;99.90;;;;;;5093236;28;20438;-86
2022/01/24 07:08:19;;;;;;;18.77;10.63;;;5.00;99.90;;;;;;5094267;28;20188;-84
2022/01/24 07:10:45;;;;;;;15.83;9.60;;;5.00;99.90;;;;;;5094984;28;20169;-91
2022/01/24 07:13:10;;;;;;;18.30;10.87;;;5.00;99.90;;;;;;5095556;28;20208;-91
2022/01/24 07:15:45;;;;;;;18.27;10.13;;;5.00;99.90;;;;;;5092198;28;20203;-89
2022/01/24 07:20:58;;;;;;;19.90;10.60;;;5.00;99.90;;;;;;5053326;28;20423;-88
2022/01/24 07:23:23;;;;;;;18.80;11.33;;;5.00;99.90;;;;;;5094580;28;20409;-92
2022/01/24 07:25:49;;;;;;;18.57;10.97;;;5.00;99.90;;;;;;5094338;28;20430;-90
2022/01/24 07:28:16;;;;;;;21.73;12.50;;;5.00;99.90;;;;;;5097288;28;20407;-89
2022/01/24 07:30:42;;;;;;;17.73;10.00;;;5.00;99.90;;;;;;5099275;28;20645;-90
2022/01/24 07:33:07;;;;;;;21.20;12.13;;;5.00;99.90;;;;;;5100331;28;20815;-91
2022/01/24 07:35:33;;;;;;;23.13;11.93;;;5.00;99.90;;;;;;5095897;28;20501;-91
2022/01/24 07:37:59;;;;;;;21.67;12.70;;;5.00;99.90;;;;;;5094105;28;20294;-88
2022/01/24 07:40:25;;;;;;;20.47;12.90;;;5.00;99.90;;;;;;5093556;28;20230;-87
2022/01/24 07:45:17;;;;;;;29.17;14.30;;;5.00;99.90;;;;;;5094603;28;20414;-92
2022/01/24 07:47:42;;;;;;;23.80;13.77;;;5.00;99.90;;;;;;5094546;28;20173;-87
2022/01/24 07:50:09;;;;;;;26.00;14.03;;;5.00;99.90;;;;;;5094406;28;20985;-86
2022/01/24 07:52:35;;;;;;;26.57;13.93;;;5.00;99.90;;;;;;5094612;28;20590;-86
2022/01/24 07:55:00;;;;;;;22.97;13.97;;;5.00;99.90;;;;;;5093061;28;20476;-87
2022/01/24 07:57:26;;;;;;;26.47;13.00;;;5.00;99.90;;;;;;5091541;28;20418;-84
2022/01/24 07:59:52;;;;;;;27.03;14.73;;;5.00;99.90;;;;;;5089599;28;20683;-84
2022/01/24 08:02:17;;;;;;;25.27;14.60;;;5.00;99.90;;;;;;5098458;28;20695;-86
2022/01/24 08:04:42;;;;;;;25.80;14.27;;;5.00;99.90;;;;;;5098845;28;20169;-84
2022/01/24 08:07:08;;;;;;;25.97;14.53;;;5.00;99.90;;;;;;5093386;28;20210;-84
2022/01/24 08:09:33;;;;;;;28.77;14.37;;;5.00;99.90;;;;;;5091659;28;20313;-84
2022/01/24 08:11:59;;;;;;;25.80;14.77;;;5.00;99.90;;;;;;5091849;28;20272;-83
2022/01/24 08:14:27;;;;;;;23.23;13.70;;;5.00;99.90;;;;;;5093684;28;20168;-84
2022/01/24 08:16:53;;;;;;;27.30;14.20;;;5.00;99.90;;;;;;5093180;28;20645;-85
2022/01/24 08:19:18;;;;;;;24.00;14.00;;;5.10;99.90;;;;;;5093009;28;20462;-83
2022/01/24 08:21:45;;;;;;;27.53;14.77;;;5.10;99.90;;;;;;5093285;28;20180;-85
2022/01/24 08:24:11;;;;;;;27.77;15.00;;;5.10;99.90;;;;;;5091943;28;20172;-85
2022/01/24 08:26:37;;;;;;;26.83;15.20;;;5.10;99.90;;;;;;5091540;28;20410;-87
2022/01/24 08:29:03;;;;;;;31.10;12.53;;;5.10;99.90;;;;;;5092019;28;20428;-86
2022/01/24 08:31:28;;;;;;;27.33;14.87;;;5.10;99.90;;;;;;5093028;28;20196;-87
2022/01/24 08:33:54;;;;;;;26.70;14.27;;;5.20;99.90;;;;;;5093129;28;20920;-86
2022/01/24 08:36:19;;;;;;;26.03;14.30;;;5.10;99.90;;;;;;5093307;28;20165;-85
2022/01/24 08:38:47;;;;;;;31.57;16.03;;;5.20;99.90;;;;;;5093354;28;20242;-85
2022/01/24 08:41:20;;;;;;;32.03;14.13;;;5.20;99.90;;;;;;5094698;28;20175;-92
2022/01/24 08:46:15;;;;;;;22.33;14.27;;;5.20;99.90;;;;;;5093903;28;20522;-89
2022/01/24 08:48:42;;;;;;;28.57;16.40;;;5.20;99.90;;;;;;5093350;28;20444;-87
2022/01/24 08:51:08;;;;;;;28.23;15.37;;;5.20;99.90;;;;;;5094199;28;20418;-88
2022/01/24 08:53:34;;;;;;;32.60;15.43;;;5.20;99.90;;;;;;5093788;28;20427;-90
2022/01/24 08:56:01;;;;;;;28.50;15.40;;;5.20;99.90;;;;;;5094291;28;20503;-90
2022/01/24 08:58:28;;;;;;;23.47;13.50;;;5.20;99.90;;;;;;5093841;28;20466;-87
2022/01/24 09:00:54;;;;;;;26.27;14.80;;;5.20;99.90;;;;;;5093171;28;20416;-90
2022/01/24 09:03:20;;;;;;;29.60;15.93;;;5.30;99.90;;;;;;5092389;28;20423;-89
2022/01/24 09:05:48;;;;;;;30.17;15.37;;;5.30;99.90;;;;;;5093806;28;20433;-90
2022/01/24 09:08:14;;;;;;;28.47;16.40;;;5.30;99.90;;;;;;5093443;28;20774;-88
2022/01/24 09:10:43;;;;;;;25.77;14.30;;;5.30;99.90;;;;;;5093577;28;20430;-87
2022/01/24 09:13:08;;;;;;;24.00;13.00;;;5.30;99.90;;;;;;5092396;28;20433;-87
2022/01/24 09:15:34;;;;;;;28.57;14.03;;;5.30;99.90;;;;;;5092713;28;20415;-89
2022/01/24 09:17:59;;;;;;;26.07;13.40;;;5.30;99.90;;;;;;5093456;28;20200;-89
2022/01/24 09:20:25;;;;;;;24.97;14.20;;;5.30;99.90;;;;;;5093537;28;20174;-88
2022/01/24 09:22:51;;;;;;;28.23;14.47;;;5.30;99.90;;;;;;5092369;28;20169;-88
2022/01/24 09:25:19;;;;;;;24.30;13.27;;;5.30;99.90;;;;;;5093684;28;20229;-89
2022/01/24 09:27:46;;;;;;;25.50;13.10;;;5.40;99.90;;;;;;5093190;28;20505;-84
2022/01/24 09:30:14;;;;;;;22.40;13.90;;;5.40;99.90;;;;;;5091131;28;20531;-84
2022/01/24 09:32:41;;;;;;;28.53;15.03;;;5.40;99.90;;;;;;5092336;28;20416;-84
2022/01/24 09:35:08;;;;;;;25.47;12.97;;;5.40;99.90;;;;;;5090938;28;20458;-84
2022/01/24 09:37:35;;;;;;;26.50;13.90;;;5.40;99.90;;;;;;5090678;28;20792;-84
2022/01/24 09:40:01;;;;;;;26.17;13.73;;;5.40;99.90;;;;;;5092108;28;20446;-84
2022/01/24 09:42:27;;;;;;;27.00;13.13;;;5.40;99.90;;;;;;5091309;28;20732;-87
2022/01/24 09:44:53;;;;;;;21.10;12.30;;;5.40;99.90;;;;;;5091975;28;20426;-85
2022/01/24 09:47:19;;;;;;;21.37;13.33;;;5.40;99.90;;;;;;5092326;28;20162;-85
2022/01/24 09:49:47;;;;;;;23.70;13.43;;;5.40;99.90;;;;;;5092056;28;20204;-85
2022/01/24 09:52:12;;;;;;;23.70;11.40;;;5.40;99.90;;;;;;5091282;28;20546;-83
2022/01/24 09:54:38;;;;;;;20.73;13.87;;;5.40;99.90;;;;;;5091625;28;20410;-86
2022/01/24 09:57:03;;;;;;;21.70;12.03;;;5.40;99.90;;;;;;5090487;28;20172;-84
2022/01/24 09:59:30;;;;;;;27.17;14.37;;;5.40;99.90;;;;;;5090961;28;20751;-87
2022/01/24 10:01:55;;;;;;;23.60;12.53;;;5.50;99.90;;;;;;5093571;28;20194;-88
2022/01/24 10:04:25;;;;;;;21.37;12.40;;;5.40;99.90;;;;;;5094408;28;20431;-85
2022/01/24 10:07:13;;;;;;;26.50;14.63;;;5.40;99.90;;;;;;5093954;28;20535;-88
2022/01/24 10:09:41;;;;;;;22.53;14.43;;;5.40;99.90;;;;;;5094220;28;20497;-86
2022/01/24 10:12:21;;;;;;;28.50;13.27;;;5.40;99.90;;;;;;5094275;28;20954;-86
2022/01/24 10:17:35;;;;;;;19.90;13.20;;;5.50;99.90;;;;;;5095455;28;20393;-88
2022/01/24 10:20:19;;;;;;;21.37;12.17;;;5.50;99.90;;;;;;5094381;28;20905;-87
2022/01/24 10:23:03;;;;;;;20.97;11.10;;;5.50;99.90;;;;;;5093614;28;20527;-85
2022/01/24 10:25:29;;;;;;;20.30;13.87;;;5.50;99.90;;;;;;5093409;28;20406;-85
2022/01/24 10:28:04;;;;;;;20.97;14.27;;;5.60;99.90;;;;;;5093719;28;20469;-85
2022/01/24 10:30:31;;;;;;;25.40;12.37;;;5.60;99.90;;;;;;5093399;28;20422;-85
2022/01/24 10:32:59;;;;;;;20.93;12.93;;;5.50;99.90;;;;;;5095123;28;20442;-85
2022/01/24 10:35:46;;;;;;;22.50;13.70;;;5.60;99.90;;;;;;5095215;28;20407;-85
2022/01/24 10:38:40;;;;;;;20.03;13.10;;;5.60;99.90;;;;;;5095016;28;20774;-85
2022/01/24 10:43:40;;;;;;;24.63;15.47;;;5.60;99.90;;;;;;5094745;28;20507;-85
2022/01/24 10:46:06;;;;;;;24.43;13.13;;;5.60;99.90;;;;;;5093406;28;20415;-86
2022/01/24 10:48:39;;;;;;;26.67;16.20;;;5.50;99.90;;;;;;5094748;28;20494;-85
2022/01/24 10:51:09;;;;;;;21.60;11.73;;;5.50;99.90;;;;;;5093331;28;20453;-85
2022/01/24 10:53:55;;;;;;;28.07;15.73;;;5.60;99.90;;;;;;5093256;28;20423;-85
2022/01/24 10:56:40;;;;;;;28.43;16.50;;;5.50;99.90;;;;;;5093343;28;20738;-85
2022/01/24 10:59:14;;;;;;;28.30;15.80;;;5.50;99.90;;;;;;5088287;28;20561;-85
2022/01/24 11:01:54;;;;;;;28.30;16.43;;;5.60;99.90;;;;;;5072646;28;20538;-85
2022/01/24 11:04:20;;;;;;;31.60;18.57;;;5.60;99.90;;;;;;5089254;28;20569;-85
2022/01/24 11:06:51;;;;;;;34.73;16.50;;;5.60;99.90;;;;;;5072731;28;20428;-87
2022/01/24 11:09:23;;;;;;;33.50;17.93;;;5.60;99.90;;;;;;5073831;28;20407;-86
2022/01/24 11:11:53;;;;;;;27.27;17.43;;;5.60;99.90;;;;;;5074239;28;20456;-86
2022/01/24 11:14:20;;;;;;;33.17;17.87;;;5.60;99.90;;;;;;5072504;28;20412;-87
2022/01/24 11:16:48;;;;;;;27.63;16.33;;;5.60;99.90;;;;;;5073907;28;20408;-86
2022/01/24 11:19:19;;;;;;;26.50;16.43;;;5.60;99.90;;;;;;5087708;28;20556;-91
2022/01/24 11:21:46;;;;;;;26.10;15.90;;;5.60;99.90;;;;;;5090810;28;20522;-91
2022/01/24 11:24:18;;;;;;;26.87;16.30;;;5.60;99.90;;;;;;5073896;28;20776;-88
2022/01/24 11:26:45;;;;;;;27.03;19.23;;;5.60;99.90;;;;;;5090724;28;20914;-90
2022/01/24 11:29:11;;;;;;;31.43;16.83;;;5.60;99.90;;;;;;5094463;28;20416;-90
2022/01/24 11:31:43;;;;;;;31.57;18.80;;;5.60;99.90;;;;;;5093939;28;20497;-87
2022/01/24 11:34:30;;;;;;;26.37;15.20;;;5.60;99.90;;;;;;5092241;28;21358;-88
2022/01/24 11:36:56;;;;;;;29.13;18.00;;;5.70;99.90;;;;;;5092754;28;20764;-88
2022/01/24 11:39:22;;;;;;;28.90;16.40;;;5.60;99.90;;;;;;5093831;28;20466;-88
2022/01/24 11:41:48;;;;;;;27.83;15.57;;;5.60;99.90;;;;;;5094677;28;20433;-92
2022/01/24 11:44:19;;;;;;;31.57;16.10;;;5.60;99.90;;;;;;5093551;28;20919;-88
2022/01/24 11:49:32;;;;;;;21.07;14.03;;;5.60;99.90;;;;;;5094559;28;20444;-89
2022/01/24 11:52:03;;;;;;;24.90;14.20;;;5.60;99.90;;;;;;5090857;28;20454;-87
2022/01/24 11:57:24;;;;;;;21.17;14.63;;;5.60;99.90;;;;;;5093088;28;20438;-87
2022/01/24 12:00:05;;;;;;;25.33;13.80;;;5.60;99.90;;;;;;5093772;28;20474;-89
2022/01/24 12:02:52;;;;;;;25.73;15.00;;;5.60;99.90;;;;;;5093416;28;20411;-91
2022/01/24 12:05:40;;;;;;;22.40;13.73;;;5.60;99.90;;;;;;5093194;28;20483;-89
2022/01/24 12:08:07;;;;;;;28.40;13.90;;;5.60;99.90;;;;;;5074261;28;20453;-89
2022/01/24 12:10:37;;;;;;;23.03;13.17;;;5.60;99.90;;;;;;5073862;28;20414;-89
2022/01/24 12:13:15;;;;;;;20.87;13.90;;;5.60;99.90;;;;;;5074576;28;20849;-88
2022/01/24 12:15:43;;;;;;;27.67;14.07;;;5.60;99.90;;;;;;5088222;28;20406;-88
2022/01/24 12:18:26;;;;;;;25.33;13.70;;;5.60;99.90;;;;;;5093087;28;20525;-84
2022/01/24 12:21:14;;;;;;;25.10;13.10;;;5.50;99.90;;;;;;5090850;28;20438;-86
2022/01/24 12:23:43;;;;;;;27.00;15.80;;;5.50;99.90;;;;;;5077294;28;20411;-84
2022/01/24 12:26:25;;;;;;;25.03;12.50;;;5.60;99.90;;;;;;5088468;28;21248;-85
2022/01/24 12:28:59;;;;;;;23.13;13.63;;;5.60;99.90;;;;;;5089194;28;20418;-84
2022/01/24 12:31:58;;;;;;;23.13;14.17;;;5.60;99.90;;;;;;5089459;28;20483;-85
2022/01/24 12:34:44;;;;;;;28.87;13.83;;;5.60;99.90;;;;;;5090991;28;20415;-85
2022/01/24 12:37:29;;;;;;;25.77;14.13;;;5.60;99.90;;;;;;5089113;28;20501;-84
2022/01/24 12:40:03;;;;;;;24.13;14.80;;;5.60;99.90;;;;;;5091193;28;20473;-85
2022/01/24 12:42:40;;;;;;;25.93;13.00;;;5.60;99.90;;;;;;5091566;28;20474;-84
2022/01/24 12:48:07;;;;;;;23.57;13.80;;;5.60;99.90;;;;;;5093125;28;20405;-85
2022/01/24 12:50:33;;;;;;;23.13;13.03;;;5.50;99.90;;;;;;5091567;28;20453;-85
2022/01/24 12:52:58;;;;;;;22.27;11.57;;;5.50;99.90;;;;;;5091142;28;20415;-85
2022/01/24 12:55:24;;;;;;;24.30;13.10;;;5.50;99.90;;;;;;5092441;28;20176;-84
2022/01/24 12:57:49;;;;;;;22.83;12.60;;;5.50;99.90;;;;;;5092580;28;20172;-85
2022/01/24 13:00:17;;;;;;;23.27;13.00;;;5.50;99.90;;;;;;5090881;28;20180;-84
2022/01/24 13:02:43;;;;;;;26.47;14.70;;;5.50;99.90;;;;;;5090816;28;20172;-85
2022/01/24 13:05:12;;;;;;;25.00;13.80;;;5.50;99.90;;;;;;5092319;28;20534;-85
2022/01/24 13:07:39;;;;;;;23.83;15.03;;;5.50;99.90;;;;;;5089233;28;20181;-84
2022/01/24 13:10:09;;;;;;;24.93;16.07;;;5.50;99.90;;;;;;5091791;28;20395;-84
2022/01/24 13:12:35;;;;;;;27.43;16.03;;;5.50;99.90;;;;;;5092076;28;20454;-84
2022/01/24 13:15:05;;;;;;;30.67;16.53;;;5.50;99.90;;;;;;5092320;28;20784;-84
2022/01/24 13:21:06;;;;;;;31.77;16.83;;;5.50;99.90;;;;;;5092600;28;20795;-84
2022/01/24 13:23:27;;;;;;;32.33;17.97;;;5.50;99.90;;;;;;5091896;28;20411;-84
2022/01/24 13:25:52;;;;;;;35.70;19.50;;;5.50;99.90;;;;;;5091575;28;20533;-84
2022/01/24 13:28:19;;;;;;;32.17;17.60;;;5.50;99.90;;;;;;5098500;28;20490;-84
2022/01/24 13:31:04;;;;;;;33.90;18.80;;;5.50;99.90;;;;;;5090912;28;20172;-85
2022/01/24 13:33:34;;;;;;;30.37;18.03;;;5.50;99.90;;;;;;5089797;28;20410;-85
2022/01/24 13:36:08;;;;;;;30.30;17.73;;;5.50;99.90;;;;;;5091087;28;20416;-85
2022/01/24 13:38:39;;;;;;;34.83;18.40;;;5.50;99.90;;;;;;5094076;28;20463;-85
2022/01/24 13:41:13;;;;;;;34.40;19.80;;;5.50;99.90;;;;;;5092486;28;20779;-85
2022/01/24 13:43:45;;;;;;;39.83;20.30;;;5.50;99.90;;;;;;5094563;28;20435;-85
2022/01/24 13:46:30;;;;;;;35.37;17.30;;;5.50;99.90;;;;;;5094218;28;20467;-85
2022/01/24 13:48:58;;;;;;;36.13;19.40;;;5.50;99.90;;;;;;5094655;28;20430;-85
2022/01/24 13:51:33;;;;;;;42.03;22.30;;;5.50;99.90;;;;;;5095219;28;20835;-85
2022/01/24 13:54:00;;;;;;;37.47;21.80;;;5.40;99.90;;;;;;5095134;28;20438;-84
2022/01/24 13:56:46;;;;;;;36.17;20.30;;;5.50;99.90;;;;;;5095334;28;20758;-85
2022/01/24 13:59:27;;;;;;;44.97;22.60;;;5.50;99.90;;;;;;5094199;28;20482;-85
2022/01/24 14:02:02;;;;;;;45.30;22.37;;;5.50;99.90;;;;;;5094327;28;20769;-85
2022/01/24 14:04:29;;;;;;;38.60;23.87;;;5.40;99.90;;;;;;5093540;28;20395;-86
2022/01/24 14:06:57;;;;;;;48.73;24.87;;;5.40;99.90;;;;;;5088354;28;20434;-88
2022/01/24 14:09:31;;;;;;;45.73;25.23;;;5.40;99.90;;;;;;5090946;28;20410;-85
2022/01/24 14:11:57;;;;;;;54.07;24.30;;;5.40;99.90;;;;;;5093110;28;20490;-86
2022/01/24 14:14:29;;;;;;;43.03;20.97;;;5.40;99.90;;;;;;5091225;28;20552;-87
2022/01/24 14:17:09;;;;;;;46.87;23.33;;;5.40;99.90;;;;;;5092685;28;20172;-85
2022/01/24 14:19:35;;;;;;;40.17;22.80;;;5.40;99.90;;;;;;5088715;28;20477;-88
2022/01/24 14:22:11;;;;;;;40.43;22.20;;;5.40;99.90;;;;;;5088099;28;20416;-87
2022/01/24 14:24:56;;;;;;;41.40;21.77;;;5.40;99.90;;;;;;5093238;28;20414;-88
2022/01/24 14:27:40;;;;;;;39.87;20.93;;;5.40;99.90;;;;;;5091905;28;20417;-89
2022/01/24 14:30:15;;;;;;;38.97;21.57;;;5.40;99.90;;;;;;5089888;28;20409;-87
2022/01/24 14:33:00;;;;;;;36.50;19.77;;;5.40;99.90;;;;;;5090380;28;20472;-87
2022/01/24 14:35:27;;;;;;;35.40;19.67;;;5.30;99.90;;;;;;5090233;28;20501;-86
2022/01/24 14:37:54;;;;;;;45.07;24.40;;;5.30;99.90;;;;;;5092916;28;20415;-88
2022/01/24 14:40:39;;;;;;;39.07;20.30;;;5.30;99.90;;;;;;5091903;28;20459;-88
2022/01/24 14:45:49;;;;;;;38.60;19.73;;;5.30;99.90;;;;;;5092932;28;20455;-89
2022/01/24 14:48:14;;;;;;;41.03;20.07;;;5.30;99.90;;;;;;5089127;28;20422;-88
2022/01/24 14:50:40;;;;;;;37.17;20.60;;;5.30;99.90;;;;;;5091399;28;20264;-88